createdAt,value
2023-06-10T00:00:09.802Z,14.32
2023-06-10T00:02:36.521Z,14.41
2023-06-10T00:05:03.371Z,14.48
2023-06-10T00:07:29.825Z,14.39
2023-06-10T00:09:56.285Z,14.26
2023-06-10T00:12:22.728Z,14.42
2023-06-10T00:14:49.184Z,14.41
2023-06-10T00:17:15.636Z,14.25
2023-06-10T00:19:42.147Z,14.28
2023-06-10T00:22:08.670Z,14.34
2023-06-10T00:24:35.116Z,14.32
2023-06-10T00:27:01.570Z,14.26
2023-06-10T00:29:28.018Z,14.51
2023-06-10T00:31:54.512Z,14.35
2023-06-10T00:34:21.213Z,14.20
2023-06-10T00:36:47.670Z,14.36
2023-06-10T00:39:14.104Z,14.29
2023-06-10T00:41:40.564Z,14.22
2023-06-10T00:44:07.047Z,14.28
2023-06-10T00:46:33.533Z,14.28
2023-06-10T00:49:00.223Z,14.22
2023-06-10T00:51:26.882Z,14.14
2023-06-10T00:53:53.591Z,14.31
2023-06-10T00:56:20.032Z,14.34
2023-06-10T00:58:46.487Z,14.14
2023-06-10T01:01:13.158Z,14.24
2023-06-10T01:03:39.659Z,14.28
2023-06-10T01:06:06.397Z,14.17
2023-06-10T01:08:32.839Z,14.10
2023-06-10T01:10:59.478Z,14.24
2023-06-10T01:13:25.908Z,14.14
2023-06-10T01:15:52.350Z,14.11
2023-06-10T01:18:18.792Z,14.21
2023-06-10T01:20:45.463Z,14.18
2023-06-10T01:23:11.893Z,14.13
2023-06-10T01:25:38.611Z,14.15
2023-06-10T01:28:05.096Z,14.35
2023-06-10T01:30:31.776Z,14.22
2023-06-10T01:32:58.276Z,14.04
2023-06-10T01:35:24.995Z,14.18
2023-06-10T01:37:51.660Z,14.15
2023-06-10T01:40:18.319Z,14.08
2023-06-10T01:42:44.790Z,14.10
2023-06-10T01:45:11.443Z,14.29
2023-06-10T01:47:38.016Z,14.10
2023-06-10T01:50:04.557Z,13.95
2023-06-10T01:52:31.023Z,14.22
2023-06-10T01:54:57.477Z,14.11
2023-06-10T01:57:23.917Z,14.00
2023-06-10T01:59:50.355Z,14.25
2023-06-10T02:02:16.993Z,14.14
2023-06-10T02:04:43.437Z,13.98
2023-06-10T02:07:09.885Z,14.00
2023-06-10T02:09:36.396Z,14.24
2023-06-10T02:12:03.102Z,14.08
2023-06-10T02:14:29.551Z,13.90
2023-06-10T02:16:56.078Z,14.11
2023-06-10T02:19:22.631Z,14.08
2023-06-10T02:21:49.096Z,13.98
2023-06-10T02:24:15.784Z,13.98
2023-06-10T02:26:42.355Z,14.17
2023-06-10T02:29:09.071Z,14.04
2023-06-10T02:31:36.525Z,14.01
2023-06-10T02:34:03.040Z,14.17
2023-06-10T02:36:29.482Z,14.03
2023-06-10T02:38:55.957Z,13.88
2023-06-10T02:41:22.424Z,14.08
2023-06-10T02:43:49.068Z,14.10
2023-06-10T02:46:15.512Z,13.91
2023-06-10T02:48:42.161Z,13.88
2023-06-10T02:51:08.817Z,14.03
2023-06-10T02:53:35.265Z,13.98
2023-06-10T02:56:01.716Z,13.86
2023-06-10T02:58:28.131Z,13.97
2023-06-10T03:00:54.572Z,14.01
2023-06-10T03:03:21.239Z,13.86
2023-06-10T03:05:47.715Z,13.86
2023-06-10T03:08:14.149Z,14.08
2023-06-10T03:10:40.583Z,13.91
2023-06-10T03:13:07.036Z,13.81
2023-06-10T03:15:33.493Z,13.94
2023-06-10T03:17:59.951Z,13.93
2023-06-10T03:20:26.471Z,13.80
2023-06-10T03:22:52.903Z,13.88
2023-06-10T03:25:19.366Z,14.03
2023-06-10T03:27:45.843Z,13.83
2023-06-10T03:30:12.294Z,13.80
2023-06-10T03:32:38.835Z,14.00
2023-06-10T03:35:05.539Z,13.88
2023-06-10T03:37:32.002Z,13.83
2023-06-10T03:39:59.498Z,13.98
2023-06-10T03:42:25.946Z,13.93
2023-06-10T03:44:52.418Z,13.81
2023-06-10T03:47:18.878Z,13.78
2023-06-10T03:49:45.321Z,13.94
2023-06-10T03:52:11.760Z,13.78
2023-06-10T03:54:38.233Z,13.73
2023-06-10T03:57:04.690Z,13.93
2023-06-10T03:59:31.137Z,13.87
2023-06-10T04:01:57.649Z,13.73
2023-06-10T04:04:24.547Z,13.87
2023-06-10T04:06:51.044Z,13.93
2023-06-10T04:09:17.506Z,13.80
2023-06-10T04:11:43.946Z,13.81
2023-06-10T04:14:10.382Z,13.97
2023-06-10T04:16:37.136Z,13.87
2023-06-10T04:19:03.614Z,13.83
2023-06-10T04:21:30.057Z,13.87
2023-06-10T04:23:56.760Z,13.91
2023-06-10T04:26:23.272Z,13.78
2023-06-10T04:28:49.741Z,13.84
2023-06-10T04:31:16.196Z,13.98
2023-06-10T04:33:42.857Z,13.86
2023-06-10T04:36:09.534Z,13.77
2023-06-10T04:38:36.027Z,13.87
2023-06-10T04:41:02.470Z,13.81
2023-06-10T04:43:28.892Z,13.78
2023-06-10T04:45:55.303Z,13.81
2023-06-10T04:48:21.752Z,13.83
2023-06-10T04:50:48.210Z,13.73
2023-06-10T04:53:14.662Z,13.77
2023-06-10T04:55:41.348Z,13.88
2023-06-10T04:58:07.781Z,13.81
2023-06-10T05:00:34.213Z,13.77
2023-06-10T05:03:00.801Z,13.86
2023-06-10T05:05:27.542Z,13.98
2023-06-10T05:07:53.984Z,13.74
2023-06-10T05:10:20.437Z,13.73
2023-06-10T05:12:47.449Z,14.00
2023-06-10T05:15:13.883Z,13.74
2023-06-10T05:17:40.430Z,13.74
2023-06-10T05:20:06.902Z,13.87
2023-06-10T05:22:33.357Z,13.88
2023-06-10T05:24:59.797Z,13.81
2023-06-10T05:27:26.478Z,13.78
2023-06-10T05:29:52.920Z,13.97
2023-06-10T05:32:19.607Z,13.77
2023-06-10T05:34:46.032Z,13.74
2023-06-10T05:37:15.632Z,13.95
2023-06-10T05:39:42.107Z,13.83
2023-06-10T05:42:08.605Z,13.80
2023-06-10T05:44:35.179Z,13.84
2023-06-10T05:47:01.604Z,13.98
2023-06-10T05:49:28.073Z,13.76
2023-06-10T05:51:54.779Z,13.70
2023-06-10T05:54:21.205Z,14.01
2023-06-10T05:56:47.661Z,13.76
2023-06-10T05:59:14.114Z,13.77
2023-06-10T06:01:40.575Z,13.91
2023-06-10T06:04:09.812Z,13.94
2023-06-10T06:06:36.261Z,13.83
2023-06-10T06:09:02.895Z,13.86
2023-06-10T06:11:29.346Z,13.88
2023-06-10T06:13:55.812Z,13.90
2023-06-10T06:16:22.274Z,13.86
2023-06-10T06:18:48.798Z,13.87
2023-06-10T06:21:15.317Z,13.97
2023-06-10T06:23:41.821Z,13.80
2023-06-10T06:26:09.091Z,13.76
2023-06-10T06:28:35.662Z,13.84
2023-06-10T06:31:02.144Z,13.76
2023-06-10T06:33:28.588Z,13.83
2023-06-10T06:35:55.239Z,13.74
2023-06-10T06:38:21.702Z,13.87
2023-06-10T06:40:48.365Z,13.90
2023-06-10T06:43:14.793Z,13.83
2023-06-10T06:45:41.445Z,13.97
2023-06-10T06:48:08.075Z,13.88
2023-06-10T06:50:34.872Z,13.93
2023-06-10T06:53:01.572Z,14.11
2023-06-10T06:55:28.252Z,13.93
2023-06-10T06:57:54.714Z,13.91
2023-06-10T07:00:21.344Z,13.88
2023-06-10T07:02:47.882Z,13.95
2023-06-10T07:05:14.678Z,13.97
2023-06-10T07:07:43.247Z,13.97
2023-06-10T07:10:12.894Z,14.03
2023-06-10T07:12:39.301Z,13.98
2023-06-10T07:15:05.955Z,13.97
2023-06-10T07:17:32.464Z,13.95
2023-06-10T07:19:59.123Z,13.93
2023-06-10T07:22:25.609Z,14.05
2023-06-10T07:24:52.299Z,14.00
2023-06-10T07:27:18.976Z,14.00
2023-06-10T07:29:46.368Z,14.17
2023-06-10T07:32:12.811Z,14.07
2023-06-10T07:34:39.236Z,14.07
2023-06-10T07:37:05.916Z,14.00
2023-06-10T07:39:32.369Z,14.11
2023-06-10T07:41:58.842Z,14.05
2023-06-10T07:44:25.311Z,13.95
2023-06-10T07:46:52.050Z,14.04
2023-06-10T07:49:18.549Z,14.03
2023-06-10T07:51:45.062Z,13.97
2023-06-10T07:54:12.564Z,13.98
2023-06-10T07:56:39.247Z,14.05
2023-06-10T07:59:05.719Z,14.08
2023-06-10T08:01:32.137Z,14.01
2023-06-10T08:03:58.725Z,14.08
2023-06-10T08:06:25.244Z,14.11
2023-06-10T08:08:51.664Z,14.01
2023-06-10T08:11:18.101Z,14.01
2023-06-10T08:13:44.533Z,13.95
2023-06-10T08:16:10.998Z,14.04
2023-06-10T08:18:37.650Z,14.32
2023-06-10T08:21:04.120Z,14.65
2023-06-10T08:23:30.921Z,14.66
2023-06-10T08:25:58.380Z,14.42
2023-06-10T08:28:24.824Z,14.31
2023-06-10T08:30:51.258Z,14.29
2023-06-10T08:33:17.804Z,14.32
2023-06-10T08:35:44.279Z,14.28
2023-06-10T08:38:10.720Z,14.58
2023-06-10T08:40:37.146Z,14.26
2023-06-10T08:43:03.833Z,14.24
2023-06-10T08:45:30.265Z,14.22
2023-06-10T08:47:56.806Z,14.25
2023-06-10T08:50:23.559Z,14.31
2023-06-10T08:52:50.024Z,14.14
2023-06-10T08:55:16.494Z,14.26
2023-06-10T08:57:43.147Z,14.31
2023-06-10T09:00:09.921Z,14.24
2023-06-10T09:02:36.653Z,14.15
2023-06-10T09:05:03.598Z,14.13
2023-06-10T09:07:30.036Z,14.29
2023-06-10T09:09:56.720Z,14.17
2023-06-10T09:12:23.185Z,14.07
2023-06-10T09:14:50.346Z,14.24
2023-06-10T09:17:17.008Z,14.21
2023-06-10T09:19:43.456Z,14.17
2023-06-10T09:22:09.885Z,14.17
2023-06-10T09:24:36.330Z,14.36
2023-06-10T09:27:02.791Z,14.18
2023-06-10T09:29:29.447Z,14.24
2023-06-10T09:31:56.168Z,14.20
2023-06-10T09:34:22.704Z,14.25
2023-06-10T09:36:49.169Z,14.20
2023-06-10T09:39:15.625Z,14.28
2023-06-10T09:41:42.144Z,14.35
2023-06-10T09:44:10.290Z,14.15
2023-06-10T09:46:36.941Z,14.29
2023-06-10T09:49:03.424Z,14.31
2023-06-10T09:51:29.851Z,14.28
2023-06-10T09:53:56.305Z,14.22
2023-06-10T09:56:22.953Z,14.22
2023-06-10T09:58:49.397Z,14.35
2023-06-10T10:01:15.905Z,14.63
2023-06-10T10:03:42.662Z,14.91
2023-06-10T10:06:09.148Z,14.73
2023-06-10T10:08:35.688Z,14.51
2023-06-10T10:11:02.708Z,14.36
2023-06-10T10:13:29.390Z,14.43
2023-06-10T10:15:55.831Z,14.38
2023-06-10T10:18:22.569Z,14.28
2023-06-10T10:20:49.067Z,14.32
2023-06-10T10:23:15.749Z,14.31
2023-06-10T10:25:42.214Z,14.35
2023-06-10T10:28:08.752Z,14.24
2023-06-10T10:30:35.201Z,14.28
2023-06-10T10:33:01.701Z,14.31
2023-06-10T10:35:28.258Z,14.24
2023-06-10T10:37:54.695Z,14.20
2023-06-10T10:40:21.360Z,14.24
2023-06-10T10:42:47.829Z,14.25
2023-06-10T10:45:14.472Z,14.17
2023-06-10T10:47:41.185Z,14.24
2023-06-10T10:50:07.737Z,14.25
2023-06-10T10:52:34.251Z,14.25
2023-06-10T10:55:00.690Z,14.31
2023-06-10T10:57:27.201Z,14.25
2023-06-10T10:59:53.679Z,14.39
2023-06-10T11:02:20.444Z,14.35
2023-06-10T11:04:47.121Z,14.28
2023-06-10T11:07:14.010Z,14.29
2023-06-10T11:09:40.687Z,14.22
2023-06-10T11:12:07.105Z,14.21
2023-06-10T11:14:34.292Z,14.24
2023-06-10T11:17:01.930Z,14.21
2023-06-10T11:19:28.431Z,14.24
2023-06-10T11:21:54.914Z,14.35
2023-06-10T11:24:21.448Z,14.36
2023-06-10T11:26:47.955Z,14.35
2023-06-10T11:29:14.402Z,14.22
2023-06-10T11:31:41.154Z,14.38
2023-06-10T11:34:07.809Z,14.28
2023-06-10T11:36:34.285Z,14.32
2023-06-10T11:39:00.728Z,14.36
2023-06-10T11:41:27.162Z,14.41
2023-06-10T11:43:53.606Z,14.18
2023-06-10T11:46:20.071Z,14.32
2023-06-10T11:48:46.568Z,14.24
2023-06-10T11:51:13.039Z,14.26
2023-06-10T11:53:39.710Z,14.18
2023-06-10T11:56:06.356Z,14.20
2023-06-10T11:58:32.799Z,14.22
2023-06-10T12:00:59.250Z,14.18
2023-06-10T12:03:26.016Z,14.21
2023-06-10T12:05:52.665Z,14.43
2023-06-10T12:08:19.145Z,14.45
2023-06-10T12:10:45.580Z,14.22
2023-06-10T12:13:12.041Z,14.22
2023-06-10T12:15:38.504Z,14.32
2023-06-10T12:18:05.250Z,14.28
2023-06-10T12:20:31.726Z,14.17
2023-06-10T12:22:58.176Z,14.22
2023-06-10T12:25:24.612Z,14.28
2023-06-10T12:27:51.027Z,14.41
2023-06-10T12:30:17.759Z,14.29
2023-06-10T12:32:44.467Z,14.21
2023-06-10T12:35:11.185Z,14.18
2023-06-10T12:37:39.461Z,14.25
2023-06-10T12:40:08.193Z,14.21
2023-06-10T12:42:34.638Z,14.21
2023-06-10T12:45:01.097Z,14.26
2023-06-10T12:47:27.601Z,14.22
2023-06-10T12:49:54.099Z,14.21
2023-06-10T12:52:20.774Z,14.25
2023-06-10T12:54:47.230Z,14.49
2023-06-10T12:57:13.695Z,14.58
2023-06-10T12:59:40.368Z,14.52
2023-06-10T13:02:06.813Z,14.38
2023-06-10T13:04:33.313Z,14.31
2023-06-10T13:06:59.812Z,14.32
2023-06-10T13:09:26.264Z,14.38
2023-06-10T13:11:52.729Z,14.51
2023-06-10T13:14:19.188Z,14.34
2023-06-10T13:16:45.932Z,14.36
2023-06-10T13:19:12.429Z,14.28
2023-06-10T13:21:40.755Z,14.31
2023-06-10T13:24:08.049Z,14.34
2023-06-10T13:26:34.470Z,14.28
2023-06-10T13:29:00.929Z,14.32
2023-06-10T13:31:27.434Z,14.26
2023-06-10T13:33:53.953Z,14.31
2023-06-10T13:36:20.412Z,14.25
2023-06-10T13:38:46.861Z,14.29
2023-06-10T13:41:13.315Z,14.34
2023-06-10T13:43:39.768Z,14.49
2023-06-10T13:46:06.500Z,14.39
2023-06-10T13:48:32.967Z,14.41
2023-06-10T13:50:59.472Z,14.42
2023-06-10T13:53:25.922Z,14.38
2023-06-10T13:55:52.327Z,14.41
2023-06-10T13:58:18.785Z,14.38
2023-06-10T14:00:45.257Z,14.41
2023-06-10T14:03:11.793Z,14.38
2023-06-10T14:05:38.513Z,14.42
2023-06-10T14:08:05.192Z,14.49
2023-06-10T14:10:31.624Z,14.51
2023-06-10T14:12:58.256Z,14.42
2023-06-10T14:15:24.679Z,14.38
2023-06-10T14:17:51.360Z,14.45
2023-06-10T14:20:17.835Z,14.43
2023-06-10T14:22:44.557Z,14.48
2023-06-10T14:25:11.192Z,14.52
2023-06-10T14:27:38.036Z,14.49
2023-06-10T14:30:04.509Z,14.52
2023-06-10T14:32:34.023Z,14.55
2023-06-10T14:35:00.576Z,14.52
2023-06-10T14:37:27.221Z,14.51
2023-06-10T14:39:53.651Z,14.45
2023-06-10T14:42:20.067Z,14.58
2023-06-10T14:44:46.492Z,14.73
2023-06-10T14:47:14.220Z,14.56
2023-06-10T14:49:40.640Z,14.61
2023-06-10T14:52:07.380Z,14.59
2023-06-10T14:54:33.832Z,14.63
2023-06-10T14:57:00.274Z,14.52
2023-06-10T14:59:26.786Z,14.51
2023-06-10T15:01:56.839Z,14.53
2023-06-10T15:04:24.241Z,14.53
2023-06-10T15:06:51.050Z,14.48
2023-06-10T15:09:18.161Z,14.63
2023-06-10T15:11:44.644Z,14.69
2023-06-10T15:14:11.088Z,14.58
2023-06-10T15:16:38.191Z,14.53
2023-06-10T15:19:04.765Z,14.53
2023-06-10T15:21:31.193Z,14.53
2023-06-10T15:23:57.859Z,14.52
2023-06-10T15:26:24.328Z,14.65
2023-06-10T15:28:50.800Z,14.56
2023-06-10T15:31:17.344Z,14.66
2023-06-10T15:33:46.576Z,14.59
2023-06-10T15:36:14.061Z,14.66
2023-06-10T15:38:40.475Z,14.55
2023-06-10T15:41:06.909Z,14.56
2023-06-10T15:43:33.362Z,14.63
2023-06-10T15:45:59.851Z,14.63
2023-06-10T15:48:26.306Z,14.68
2023-06-10T15:50:52.968Z,14.65
2023-06-10T15:53:19.388Z,14.91
2023-06-10T15:55:45.803Z,14.77
2023-06-10T15:58:12.245Z,14.72
2023-06-10T16:00:38.692Z,14.66
2023-06-10T16:03:05.446Z,14.62
2023-06-10T16:05:31.973Z,14.70
2023-06-10T16:07:59.320Z,14.70
2023-06-10T16:10:28.146Z,14.63
2023-06-10T16:12:54.572Z,14.65
2023-06-10T16:15:21.038Z,14.66
2023-06-10T16:17:47.710Z,14.89
2023-06-10T16:20:14.210Z,14.79
2023-06-10T16:22:40.876Z,14.72
2023-06-10T16:25:07.595Z,14.63
2023-06-10T16:27:34.399Z,14.82
2023-06-10T16:30:02.896Z,14.70
2023-06-10T16:32:29.666Z,14.70
2023-06-10T16:34:56.191Z,14.73
2023-06-10T16:37:22.627Z,14.75
2023-06-10T16:39:49.073Z,14.69
2023-06-10T16:42:15.518Z,14.69
2023-06-10T16:44:42.209Z,14.75
2023-06-10T16:47:08.681Z,14.77
2023-06-10T16:49:35.136Z,14.73
2023-06-10T16:52:01.804Z,14.70
2023-06-10T16:54:28.418Z,14.65
2023-06-10T16:56:54.862Z,14.68
2023-06-10T16:59:21.611Z,14.63
2023-06-10T17:01:48.264Z,14.66
2023-06-10T17:04:14.757Z,14.65
2023-06-10T17:06:41.283Z,14.63
2023-06-10T17:09:08.156Z,14.63
2023-06-10T17:11:34.572Z,14.65
2023-06-10T17:14:01.309Z,14.68
2023-06-10T17:16:28.188Z,14.66
2023-06-10T17:18:54.650Z,14.63
2023-06-10T17:21:21.400Z,14.66
2023-06-10T17:23:47.999Z,14.63
2023-06-10T17:26:14.461Z,14.66
2023-06-10T17:28:41.036Z,14.65
2023-06-10T17:31:07.794Z,14.69
2023-06-10T17:33:34.485Z,14.62
2023-06-10T17:36:01.440Z,14.63
2023-06-10T17:38:28.117Z,14.63
2023-06-10T17:40:54.564Z,14.65
2023-06-10T17:43:21.025Z,14.65
2023-06-10T17:45:47.474Z,14.62
2023-06-10T17:48:14.160Z,14.58
2023-06-10T17:50:40.895Z,14.63
2023-06-10T17:53:07.397Z,14.61
2023-06-10T17:55:34.097Z,14.62
2023-06-10T17:58:00.531Z,14.65
2023-06-10T18:00:26.981Z,14.61
2023-06-10T18:02:53.596Z,14.66
2023-06-10T18:05:20.120Z,14.62
2023-06-10T18:07:46.564Z,14.58
2023-06-10T18:10:12.978Z,14.62
2023-06-10T18:12:39.411Z,14.61
2023-06-10T18:15:06.104Z,14.59
2023-06-10T18:17:32.761Z,14.63
2023-06-10T18:19:59.597Z,14.59
2023-06-10T18:22:26.278Z,14.56
2023-06-10T18:24:53.325Z,14.56
2023-06-10T18:27:19.992Z,14.61
2023-06-10T18:29:46.433Z,14.62
2023-06-10T18:32:14.222Z,14.53
2023-06-10T18:34:40.972Z,14.52
2023-06-10T18:37:07.408Z,14.53
2023-06-10T18:39:34.088Z,14.49
2023-06-10T18:42:00.594Z,14.48
2023-06-10T18:44:27.256Z,14.49
2023-06-10T18:46:53.697Z,14.48
2023-06-10T18:49:20.361Z,14.45
2023-06-10T18:51:47.048Z,14.45
2023-06-10T18:54:13.504Z,14.49
2023-06-10T18:56:40.189Z,14.46
2023-06-10T18:59:06.602Z,14.43
2023-06-10T19:01:33.118Z,14.43
2023-06-10T19:03:59.580Z,14.48
2023-06-10T19:06:26.035Z,14.48
2023-06-10T19:08:52.717Z,14.46
2023-06-10T19:11:19.598Z,14.42
2023-06-10T19:13:46.248Z,14.42
2023-06-10T19:16:12.926Z,14.43
2023-06-10T19:18:39.376Z,14.39
2023-06-10T19:21:08.230Z,14.36
2023-06-10T19:23:34.969Z,14.35
2023-06-10T19:26:01.952Z,14.36
2023-06-10T19:28:28.647Z,14.35
2023-06-10T19:30:55.093Z,14.32
2023-06-10T19:33:21.752Z,14.36
2023-06-10T19:35:48.741Z,14.39
2023-06-10T19:38:15.229Z,14.42
2023-06-10T19:40:41.912Z,14.38
2023-06-10T19:43:08.406Z,14.38
2023-06-10T19:45:35.618Z,14.36
2023-06-10T19:48:03.123Z,14.36
2023-06-10T19:50:29.623Z,14.42
2023-06-10T19:52:56.097Z,14.43
2023-06-10T19:55:22.574Z,14.42
2023-06-10T19:57:49.054Z,14.41
2023-06-10T20:00:15.516Z,14.38
2023-06-10T20:02:41.975Z,14.38
2023-06-10T20:05:08.724Z,14.41
2023-06-10T20:07:35.368Z,14.34
2023-06-10T20:10:01.812Z,14.35
2023-06-10T20:12:28.278Z,14.35
2023-06-10T20:14:54.917Z,14.35
2023-06-10T20:17:21.386Z,14.38
2023-06-10T20:19:47.846Z,14.34
2023-06-10T20:22:14.259Z,14.34
2023-06-10T20:24:40.757Z,14.39
2023-06-10T20:27:07.275Z,14.31
2023-06-10T20:29:33.721Z,14.32
2023-06-10T20:32:00.863Z,14.38
2023-06-10T20:34:27.336Z,14.28
2023-06-10T20:36:53.816Z,14.26
2023-06-10T20:39:20.242Z,14.32
2023-06-10T20:41:46.901Z,14.32
2023-06-10T20:44:13.378Z,14.35
2023-06-10T20:46:40.222Z,14.31
2023-06-10T20:49:06.760Z,14.28
2023-06-10T20:51:33.211Z,14.29
2023-06-10T20:53:59.661Z,14.31
2023-06-10T20:56:26.110Z,14.31
2023-06-10T20:58:52.561Z,14.25
2023-06-10T21:01:19.084Z,14.28
2023-06-10T21:03:45.616Z,14.39
2023-06-10T21:06:12.117Z,14.35
2023-06-10T21:08:38.596Z,14.29
2023-06-10T21:11:05.055Z,14.34
2023-06-10T21:13:31.738Z,14.28
2023-06-10T21:15:58.227Z,14.22
2023-06-10T21:18:24.702Z,14.22
2023-06-10T21:20:51.172Z,14.26
2023-06-10T21:23:17.620Z,14.24
2023-06-10T21:25:44.033Z,14.20
2023-06-10T21:28:10.476Z,14.26
2023-06-10T21:30:36.925Z,14.26
2023-06-10T21:33:03.634Z,14.32
2023-06-10T21:35:30.133Z,14.26
2023-06-10T21:37:56.591Z,14.22
2023-06-10T21:40:23.045Z,14.25
2023-06-10T21:42:49.522Z,14.22
2023-06-10T21:45:16.007Z,14.32
2023-06-10T21:47:42.511Z,14.28
2023-06-10T21:50:08.997Z,14.28
2023-06-10T21:52:35.444Z,14.25
2023-06-10T21:55:01.947Z,14.38
2023-06-10T21:57:28.426Z,14.42
2023-06-10T21:59:54.946Z,14.36
2023-06-10T22:02:21.476Z,14.39
2023-06-10T22:04:47.917Z,14.28
2023-06-10T22:07:14.389Z,14.28
2023-06-10T22:09:40.949Z,14.36
2023-06-10T22:12:07.398Z,14.32
2023-06-10T22:14:33.860Z,14.26
2023-06-10T22:17:00.427Z,14.36
2023-06-10T22:19:26.932Z,14.34
2023-06-10T22:21:53.357Z,14.28
2023-06-10T22:24:19.860Z,14.24
2023-06-10T22:26:53.713Z,14.34
2023-06-10T22:29:21.019Z,14.36
2023-06-10T22:31:47.644Z,14.38
2023-06-10T22:34:14.122Z,14.35
2023-06-10T22:36:40.806Z,14.29
2023-06-10T22:39:07.223Z,14.34
2023-06-10T22:41:33.628Z,14.26
2023-06-10T22:44:00.117Z,14.43
2023-06-10T22:46:26.608Z,14.42
2023-06-10T22:48:53.140Z,14.31
2023-06-10T22:51:19.690Z,14.36
2023-06-10T22:53:46.128Z,14.31
2023-06-10T22:56:12.583Z,14.34
2023-06-10T22:58:39.040Z,14.25
2023-06-10T23:01:05.489Z,14.31
2023-06-10T23:03:32.173Z,14.26
2023-06-10T23:05:58.849Z,14.36
2023-06-10T23:08:25.269Z,14.31
2023-06-10T23:10:51.922Z,14.31
2023-06-10T23:13:18.367Z,14.34
2023-06-10T23:15:45.031Z,14.32
2023-06-10T23:18:11.510Z,14.32
2023-06-10T23:20:37.952Z,14.36
2023-06-10T23:23:04.386Z,14.39
2023-06-10T23:25:30.830Z,14.36
2023-06-10T23:27:57.320Z,14.35
2023-06-10T23:30:23.832Z,14.29
2023-06-10T23:32:50.490Z,14.35
2023-06-10T23:35:18.822Z,14.35
2023-06-10T23:37:45.407Z,14.29
2023-06-10T23:40:12.084Z,14.25
2023-06-10T23:42:38.547Z,14.25
2023-06-10T23:45:05.001Z,14.25
2023-06-10T23:47:31.497Z,14.24
2023-06-10T23:49:57.961Z,14.21
2023-06-10T23:52:24.917Z,14.32
2023-06-10T23:54:51.356Z,14.31
2023-06-10T23:57:17.829Z,14.32
2023-06-10T23:59:44.306Z,14.25
